createdAt,value
2022-11-23T00:02:04.661Z,87.22
2022-11-23T00:07:18.269Z,87.05
2022-11-23T00:09:45.064Z,91.57
2022-11-23T00:12:11.785Z,90.57
2022-11-23T00:14:38.586Z,88.07
2022-11-23T00:17:05.342Z,100.87
2022-11-23T00:19:32.421Z,93.43
2022-11-23T00:21:59.391Z,91.27
2022-11-23T00:24:26.141Z,88.45
2022-11-23T00:26:52.890Z,91.05
2022-11-23T00:29:19.641Z,86.10
2022-11-23T00:31:46.451Z,88.65
2022-11-23T00:34:13.199Z,84.43
2022-11-23T00:36:40.043Z,91.77
2022-11-23T00:39:06.803Z,92.18
2022-11-23T00:41:33.654Z,90.72
2022-11-23T00:44:00.444Z,83.60
2022-11-23T00:46:28.172Z,81.53
2022-11-23T00:48:57.378Z,83.88
2022-11-23T00:51:32.720Z,88.47
2022-11-23T00:56:47.177Z,81.88
2022-11-23T01:02:00.653Z,79.80
2022-11-23T01:07:14.208Z,75.97
2022-11-23T01:12:29.242Z,72.18
2022-11-23T01:17:42.726Z,73.90
2022-11-23T01:20:09.989Z,73.97
2022-11-23T01:22:36.767Z,70.82
2022-11-23T01:25:03.964Z,71.35
2022-11-23T01:27:30.713Z,71.05
2022-11-23T01:29:57.465Z,68.20
2022-11-23T01:32:24.194Z,66.22
2022-11-23T01:34:50.922Z,69.38
2022-11-23T01:37:17.713Z,68.00
2022-11-23T01:39:44.444Z,71.40
2022-11-23T01:42:15.226Z,66.72
2022-11-23T01:44:44.615Z,71.50
2022-11-23T01:47:11.486Z,63.15
2022-11-23T01:49:49.356Z,66.60
2022-11-23T01:52:20.295Z,70.22
2022-11-23T01:57:45.138Z,63.05
2022-11-23T02:00:12.872Z,67.10
2022-11-23T02:02:43.965Z,66.28
2022-11-23T02:05:11.678Z,67.50
2022-11-23T02:10:26.364Z,62.42
2022-11-23T02:15:41.348Z,68.45
2022-11-23T02:18:15.306Z,62.42
2022-11-23T02:20:43.937Z,64.20
2022-11-23T02:26:14.836Z,67.63
2022-11-23T02:28:47.076Z,68.03
2022-11-23T02:31:13.797Z,64.20
2022-11-23T02:33:41.592Z,62.80
2022-11-23T02:36:43.625Z,63.33
2022-11-23T02:39:27.195Z,62.05
2022-11-23T02:41:55.402Z,58.53
2022-11-23T02:44:39.408Z,62.47
2022-11-23T02:47:07.436Z,61.58
2022-11-23T02:49:34.708Z,59.70
2022-11-23T02:52:02.287Z,60.40
2022-11-23T02:54:29.000Z,57.45
2022-11-23T02:59:22.492Z,54.42
2022-11-23T03:01:49.330Z,58.95
2022-11-23T03:04:16.106Z,58.20
2022-11-23T03:06:43.152Z,57.38
2022-11-23T03:09:09.886Z,61.90
2022-11-23T03:11:36.825Z,57.95
2022-11-23T03:14:04.108Z,52.55
2022-11-23T03:16:30.911Z,53.40
2022-11-23T03:18:57.639Z,55.67
2022-11-23T03:21:24.439Z,52.88
2022-11-23T03:23:51.192Z,52.97
2022-11-23T03:26:17.953Z,55.72
2022-11-23T03:28:44.762Z,53.88
2022-11-23T03:31:11.618Z,49.95
2022-11-23T03:33:38.343Z,50.33
2022-11-23T03:36:05.445Z,56.80
2022-11-23T03:38:32.180Z,50.22
2022-11-23T03:40:58.949Z,49.47
2022-11-23T03:43:25.779Z,51.38
2022-11-23T03:45:52.519Z,52.53
2022-11-23T03:48:19.261Z,51.25
2022-11-23T03:50:46.144Z,49.10
2022-11-23T03:53:13.270Z,49.60
2022-11-23T03:55:40.045Z,52.25
2022-11-23T03:58:06.805Z,50.63
2022-11-23T04:00:34.099Z,50.13
2022-11-23T04:03:00.928Z,49.20
2022-11-23T04:08:14.350Z,49.25
2022-11-23T04:13:27.779Z,45.97
2022-11-23T04:18:41.231Z,45.33
2022-11-23T04:23:54.664Z,46.92
2022-11-23T04:26:21.431Z,45.60
2022-11-23T04:28:48.172Z,46.13
2022-11-23T04:31:14.934Z,45.08
2022-11-23T04:33:44.230Z,45.97
2022-11-23T04:36:11.021Z,48.58
2022-11-23T04:38:37.801Z,44.10
2022-11-23T04:41:04.701Z,45.10
2022-11-23T04:43:31.520Z,42.35
2022-11-23T04:45:58.213Z,45.10
2022-11-23T04:48:25.028Z,45.00
2022-11-23T04:50:55.424Z,42.90
2022-11-23T04:53:22.635Z,42.58
2022-11-23T04:55:49.446Z,41.47
2022-11-23T04:58:16.292Z,42.37
2022-11-23T05:00:43.179Z,39.90
2022-11-23T05:03:10.000Z,40.97
2022-11-23T05:05:40.797Z,43.65
2022-11-23T05:08:08.094Z,41.63
2022-11-23T05:10:35.066Z,41.88
2022-11-23T05:13:01.909Z,42.97
2022-11-23T05:15:28.818Z,41.03
2022-11-23T05:20:51.784Z,43.88
2022-11-23T05:26:05.435Z,38.90
2022-11-23T05:28:40.940Z,40.88
2022-11-23T05:31:08.345Z,41.35
2022-11-23T05:33:35.604Z,42.13
2022-11-23T05:36:02.425Z,40.83
2022-11-23T05:38:29.320Z,40.53
2022-11-23T05:40:56.055Z,39.05
2022-11-23T05:43:22.861Z,41.20
2022-11-23T05:45:49.584Z,40.40
2022-11-23T05:48:16.674Z,39.83
2022-11-23T05:50:43.465Z,39.83
2022-11-23T05:53:10.439Z,37.77
2022-11-23T05:55:37.259Z,38.45
2022-11-23T05:58:04.005Z,42.50
2022-11-23T06:00:30.838Z,36.72
2022-11-23T06:03:01.605Z,36.53
2022-11-23T06:05:29.540Z,39.90
2022-11-23T06:07:56.613Z,34.42
2022-11-23T06:10:23.479Z,35.28
2022-11-23T06:12:50.217Z,37.45
2022-11-23T06:14:16.373Z,0
2022-11-23T06:15:17.201Z,36.65
2022-11-23T06:17:43.963Z,37.00
2022-11-23T06:20:10.887Z,34.45
2022-11-23T06:22:37.630Z,35.83
2022-11-23T06:25:04.559Z,34.93
2022-11-23T06:27:31.362Z,36.35
2022-11-23T06:29:58.081Z,34.35
2022-11-23T06:32:24.872Z,34.85
2022-11-23T06:34:51.686Z,34.72
2022-11-23T06:37:18.471Z,33.33
2022-11-23T06:39:45.228Z,34.70
2022-11-23T06:42:37.166Z,33.90
2022-11-23T06:44:59.077Z,33.87
2022-11-23T06:47:26.689Z,33.55
2022-11-23T06:49:53.628Z,34.05
2022-11-23T06:52:20.658Z,36.42
2022-11-23T06:54:47.540Z,32.25
2022-11-23T06:57:14.423Z,35.30
2022-11-23T06:59:44.814Z,35.05
2022-11-23T07:02:12.503Z,34.40
2022-11-23T07:04:39.277Z,37.83
2022-11-23T07:07:08.407Z,35.42
2022-11-23T07:09:35.480Z,32.67
2022-11-23T07:12:02.525Z,35.03
2022-11-23T07:17:17.591Z,31.05
2022-11-23T07:22:31.383Z,31.30
2022-11-23T07:27:44.947Z,32.00
2022-11-23T07:30:12.069Z,30.63
2022-11-23T07:32:38.828Z,30.23
2022-11-23T07:35:06.100Z,32.65
2022-11-23T07:37:32.840Z,32.17
2022-11-23T07:40:00.252Z,33.88
2022-11-23T07:42:39.940Z,30.17
2022-11-23T07:42:47.051Z,0
2022-11-23T07:45:10.493Z,29.65
2022-11-23T07:47:37.739Z,31.10
2022-11-23T07:50:06.905Z,29.73
2022-11-23T07:52:33.716Z,28.33
2022-11-23T07:55:00.481Z,29.98
2022-11-23T07:57:28.471Z,31.15
2022-11-23T07:59:55.272Z,30.53
2022-11-23T08:02:00.969Z,0
2022-11-23T08:02:22.164Z,26.98
2022-11-23T08:03:32.155Z,0
2022-11-23T08:04:49.006Z,30.63
2022-11-23T08:07:15.861Z,28.60
2022-11-23T08:09:42.696Z,25.27
2022-11-23T08:12:09.446Z,27.38
2022-11-23T08:14:36.276Z,31.38
2022-11-23T08:17:03.314Z,28.45
2022-11-23T08:19:33.186Z,25.90
2022-11-23T08:21:59.937Z,25.23
2022-11-23T08:24:26.680Z,26.10
2022-11-23T08:26:53.411Z,25.20
2022-11-23T08:29:20.218Z,25.95
2022-11-23T08:31:47.007Z,25.80
2022-11-23T08:37:00.536Z,25.58
2022-11-23T08:42:13.944Z,26.60
2022-11-23T08:44:40.733Z,26.83
2022-11-23T08:47:07.471Z,23.75
2022-11-23T08:49:34.240Z,22.98
2022-11-23T08:52:00.963Z,25.65
2022-11-23T08:54:27.769Z,24.60
2022-11-23T08:56:54.499Z,25.70
2022-11-23T08:59:23.107Z,22.83
2022-11-23T09:01:49.953Z,21.90
2022-11-23T09:04:20.638Z,22.30
2022-11-23T09:06:47.759Z,23.33
2022-11-23T09:09:14.543Z,22.45
2022-11-23T09:11:41.273Z,21.13
2022-11-23T09:14:08.046Z,23.38
2022-11-23T09:16:34.793Z,20.95
2022-11-23T09:19:01.588Z,30.53
2022-11-23T09:21:28.320Z,21.88
2022-11-23T09:23:55.699Z,21.63
2022-11-23T09:26:22.440Z,25.42
2022-11-23T09:28:52.758Z,23.65
2022-11-23T09:31:19.551Z,20.20
2022-11-23T09:33:46.320Z,22.03
2022-11-23T09:36:13.087Z,22.02
2022-11-23T09:38:56.134Z,28.75
2022-11-23T09:38:59.635Z,0
2022-11-23T09:41:48.191Z,21.60
2022-11-23T09:45:00.769Z,22.27
2022-11-23T09:47:49.096Z,21.83
2022-11-23T09:50:30.274Z,22.27
2022-11-23T09:52:57.058Z,20.25
2022-11-23T09:55:46.161Z,22.63
2022-11-23T09:57:04.319Z,0
2022-11-23T09:58:19.540Z,22.63
2022-11-23T10:00:55.982Z,22.23
2022-11-23T10:03:22.832Z,22.20
2022-11-23T10:06:05.310Z,21.00
2022-11-23T10:09:13.720Z,25.35
2022-11-23T10:12:08.311Z,23.15
2022-11-23T10:14:53.655Z,23.38
2022-11-23T10:17:35.490Z,24.43
2022-11-23T10:20:08.143Z,22.75
2022-11-23T10:22:39.454Z,20.92
2022-11-23T10:25:16.467Z,21.60
2022-11-23T10:27:46.028Z,21.40
2022-11-23T10:30:14.912Z,22.38
2022-11-23T10:32:51.429Z,19.75
2022-11-23T10:35:34.176Z,21.90
2022-11-23T10:38:18.096Z,22.05
2022-11-23T10:41:08.606Z,22.83
2022-11-23T10:43:53.284Z,25.45
2022-11-23T10:46:28.440Z,24.35
2022-11-23T10:51:54.250Z,22.50
2022-11-23T10:54:27.888Z,21.45
2022-11-23T10:56:55.930Z,23.33
2022-11-23T11:02:23.089Z,21.83
2022-11-23T11:06:13.795Z,0
2022-11-23T11:07:39.265Z,22.02
2022-11-23T11:10:06.674Z,23.83
2022-11-23T11:14:48.924Z,0
2022-11-23T11:15:21.809Z,22.05
2022-11-23T11:17:56.357Z,22.02
2022-11-23T11:20:31.111Z,24.25
2022-11-23T11:23:03.703Z,23.70
2022-11-23T11:25:37.062Z,21.58
2022-11-23T11:28:06.451Z,23.55
2022-11-23T11:29:42.127Z,0
2022-11-23T11:33:46.634Z,24.83
2022-11-23T11:36:16.000Z,24.17
2022-11-23T11:39:15.053Z,22.38
2022-11-23T11:41:37.357Z,26.07
2022-11-23T11:44:16.022Z,22.95
2022-11-23T11:46:32.439Z,0
2022-11-23T11:46:49.345Z,21.35
2022-11-23T11:49:23.392Z,23.13
2022-11-23T11:51:56.830Z,22.17
2022-11-23T11:54:40.272Z,26.15
2022-11-23T11:57:16.349Z,23.27
2022-11-23T11:59:47.384Z,27.37
2022-11-23T12:02:42.445Z,30.67
2022-11-23T12:05:16.649Z,24.85
2022-11-23T12:07:58.457Z,24.30
2022-11-23T12:10:29.812Z,25.52
2022-11-23T12:15:50.184Z,24.58
2022-11-23T12:18:39.523Z,23.75
2022-11-23T12:21:04.093Z,0
2022-11-23T12:21:15.064Z,26.23
2022-11-23T12:23:47.723Z,23.83
2022-11-23T12:26:49.545Z,22.83
2022-11-23T12:29:23.915Z,22.73
2022-11-23T12:31:59.103Z,20.70
2022-11-23T12:34:41.155Z,19.77
2022-11-23T12:37:24.792Z,18.67
2022-11-23T12:39:57.391Z,17.20
2022-11-23T12:42:26.427Z,19.48
2022-11-23T12:45:14.260Z,19.08
2022-11-23T12:48:07.040Z,20.08
2022-11-23T12:49:40.045Z,0
2022-11-23T12:53:33.412Z,18.85
2022-11-23T12:56:28.470Z,17.23
2022-11-23T12:58:59.385Z,21.83
2022-11-23T13:01:35.724Z,0
2022-11-23T13:04:51.781Z,17.67
2022-11-23T13:07:40.066Z,18.95
2022-11-23T13:07:52.264Z,0
2022-11-23T13:10:36.435Z,17.65
2022-11-23T13:13:20.861Z,17.08
2022-11-23T13:16:15.768Z,18.93
2022-11-23T13:19:11.603Z,20.05
2022-11-23T13:20:01.828Z,0
2022-11-23T13:21:48.254Z,17.80
2022-11-23T13:24:37.889Z,17.83
2022-11-23T13:27:14.917Z,19.25
2022-11-23T13:31:20.180Z,0
2022-11-23T13:32:40.338Z,18.98
2022-11-23T13:35:19.320Z,20.75
2022-11-23T13:37:16.617Z,0
2022-11-23T13:37:57.824Z,19.63
2022-11-23T13:43:33.001Z,21.40
2022-11-23T13:46:21.068Z,20.30
2022-11-23T13:48:58.125Z,18.48
2022-11-23T13:51:35.573Z,21.58
2022-11-23T13:54:06.038Z,20.98
2022-11-23T13:56:38.554Z,20.75
2022-11-23T13:59:20.311Z,18.13
2022-11-23T14:02:08.850Z,19.40
2022-11-23T14:04:37.700Z,19.10
2022-11-23T14:07:09.369Z,20.27
2022-11-23T14:09:45.068Z,19.70
2022-11-23T14:10:12.238Z,0
2022-11-23T14:12:11.780Z,17.80
2022-11-23T14:15:09.458Z,21.98
2022-11-23T14:17:55.036Z,18.73
2022-11-23T14:24:15.863Z,16.80
2022-11-23T14:27:50.032Z,0
2022-11-23T14:30:34.005Z,16.92
2022-11-23T14:33:27.090Z,18.63
2022-11-23T14:39:16.606Z,18.57
2022-11-23T14:41:45.559Z,17.30
2022-11-23T14:44:14.672Z,21.58
2022-11-23T14:47:04.770Z,17.48
2022-11-23T14:49:32.165Z,18.67
2022-11-23T14:52:01.104Z,21.08
2022-11-23T14:54:28.872Z,16.98
2022-11-23T14:57:02.936Z,18.95
2022-11-23T14:59:40.085Z,19.45
2022-11-23T15:02:20.035Z,20.02
2022-11-23T15:03:57.728Z,0
2022-11-23T15:14:26.091Z,18.50
2022-11-23T15:16:52.993Z,20.40
2022-11-23T15:19:26.124Z,19.48
2022-11-23T15:21:52.967Z,17.17
2022-11-23T15:24:27.496Z,19.25
2022-11-23T15:27:06.517Z,19.02
2022-11-23T15:29:38.480Z,19.00
2022-11-23T15:32:34.239Z,17.35
2022-11-23T15:35:07.834Z,19.33
2022-11-23T15:37:42.949Z,18.45
2022-11-23T15:40:14.207Z,17.83
2022-11-23T15:42:42.169Z,17.00
2022-11-23T15:45:38.118Z,19.53
2022-11-23T15:48:10.920Z,19.25
2022-11-23T15:50:57.475Z,21.10
2022-11-23T15:53:47.407Z,17.85
2022-11-23T15:56:34.251Z,17.67
2022-11-23T15:59:28.972Z,20.02
2022-11-23T16:01:56.507Z,19.20
2022-11-23T16:04:16.384Z,0
2022-11-23T16:04:33.242Z,16.58
2022-11-23T16:07:23.976Z,17.83
2022-11-23T16:09:57.845Z,0
2022-11-23T16:10:03.982Z,18.92
2022-11-23T16:12:33.510Z,21.27
2022-11-23T16:15:38.275Z,19.60
2022-11-23T16:21:19.483Z,22.67
2022-11-23T16:23:54.483Z,20.95
2022-11-23T16:26:29.970Z,22.15
2022-11-23T16:30:05.990Z,0
2022-11-23T16:31:53.672Z,21.88
2022-11-23T16:37:07.120Z,20.88
2022-11-23T16:39:33.928Z,21.65
2022-11-23T16:42:00.692Z,21.23
2022-11-23T16:44:30.132Z,21.92
2022-11-23T16:47:21.852Z,21.70
2022-11-23T16:49:48.822Z,22.83
2022-11-23T16:54:37.554Z,0
2022-11-23T16:55:02.548Z,23.30
2022-11-23T16:57:31.649Z,25.58
2022-11-23T17:02:48.898Z,23.58
2022-11-23T17:08:05.398Z,30.13
2022-11-23T17:13:23.646Z,24.20
2022-11-23T17:18:38.233Z,23.42
2022-11-23T17:21:05.098Z,24.63
2022-11-23T17:23:31.863Z,24.40
2022-11-23T17:25:58.807Z,21.10
2022-11-23T17:28:25.641Z,25.95
2022-11-23T17:29:45.640Z,0
2022-11-23T17:33:39.047Z,23.60
2022-11-23T17:38:33.443Z,23.52
2022-11-23T17:41:00.681Z,24.17
2022-11-23T17:43:27.538Z,23.20
2022-11-23T17:45:54.452Z,21.83
2022-11-23T17:48:21.329Z,21.85
2022-11-23T17:50:48.073Z,21.27
2022-11-23T17:53:14.925Z,24.05
2022-11-23T17:55:41.763Z,22.88
2022-11-23T17:58:11.689Z,24.70
2022-11-23T18:00:38.755Z,22.70
2022-11-23T18:03:05.726Z,24.75
2022-11-23T18:05:32.635Z,26.95
2022-11-23T18:07:59.403Z,24.40
2022-11-23T18:10:26.213Z,22.43
2022-11-23T18:12:53.121Z,25.38
2022-11-23T18:18:06.702Z,22.65
2022-11-23T18:23:20.180Z,22.92
2022-11-23T18:28:33.681Z,23.48
2022-11-23T18:31:00.434Z,23.88
2022-11-23T18:33:27.197Z,22.30
2022-11-23T18:35:53.985Z,23.17
2022-11-23T18:38:20.723Z,22.08
2022-11-23T18:40:47.524Z,22.58
2022-11-23T18:43:14.322Z,22.75
2022-11-23T18:45:42.109Z,24.52
2022-11-23T18:48:08.946Z,21.75
2022-11-23T18:50:36.413Z,21.42
2022-11-23T18:53:03.693Z,21.52
2022-11-23T18:55:30.436Z,23.30
2022-11-23T18:57:57.212Z,25.17
2022-11-23T19:00:02.720Z,0
2022-11-23T19:00:24.903Z,20.60
2022-11-23T19:02:56.934Z,22.23
2022-11-23T19:05:25.027Z,23.75
2022-11-23T19:07:52.577Z,26.55
2022-11-23T19:10:19.440Z,23.50
2022-11-23T19:12:46.487Z,24.90
2022-11-23T19:15:13.283Z,23.20
2022-11-23T19:17:40.303Z,24.25
2022-11-23T19:20:07.881Z,26.15
2022-11-23T19:22:35.748Z,28.98
2022-11-23T19:25:02.610Z,22.67
2022-11-23T19:27:29.365Z,23.58
2022-11-23T19:29:56.110Z,22.83
2022-11-23T19:32:22.858Z,23.75
2022-11-23T19:34:49.672Z,23.30
2022-11-23T19:37:16.449Z,22.13
2022-11-23T19:39:43.219Z,23.00
2022-11-23T19:42:09.973Z,22.73
2022-11-23T19:44:36.745Z,23.70
2022-11-23T19:47:07.276Z,22.90
2022-11-23T19:49:36.946Z,26.48
2022-11-23T19:52:03.850Z,24.17
2022-11-23T19:53:32.226Z,0
2022-11-23T19:54:30.625Z,28.00
2022-11-23T19:56:57.358Z,25.70
2022-11-23T19:59:24.980Z,24.35
2022-11-23T20:01:51.868Z,25.20
2022-11-23T20:07:05.432Z,29.10
2022-11-23T20:11:58.866Z,27.38
2022-11-23T20:14:25.642Z,29.75
2022-11-23T20:19:39.087Z,26.15
2022-11-23T20:22:05.824Z,28.63
2022-11-23T20:24:32.549Z,26.85
2022-11-23T20:26:59.333Z,27.50
2022-11-23T20:29:26.293Z,27.17
2022-11-23T20:31:53.094Z,25.20
2022-11-23T20:34:22.980Z,27.83
2022-11-23T20:39:38.853Z,23.95
2022-11-23T20:44:52.260Z,27.67
2022-11-23T20:47:05.980Z,0
2022-11-23T20:47:19.037Z,28.38
2022-11-23T20:49:45.760Z,30.35
2022-11-23T20:52:12.525Z,28.55
2022-11-23T20:54:39.262Z,28.42
2022-11-23T20:57:05.996Z,31.08
2022-11-23T20:59:32.814Z,28.55
2022-11-23T21:04:46.558Z,28.95
2022-11-23T21:08:33.240Z,0
2022-11-23T21:09:59.974Z,29.40
2022-11-23T21:12:26.717Z,29.08
2022-11-23T21:14:53.452Z,27.52
2022-11-23T21:17:20.213Z,27.50
2022-11-23T21:19:47.003Z,30.17
2022-11-23T21:22:14.708Z,29.58
2022-11-23T21:24:42.295Z,30.90
2022-11-23T21:27:12.391Z,27.75
2022-11-23T21:29:39.422Z,29.77
2022-11-23T21:32:06.207Z,29.52
2022-11-23T21:34:33.332Z,28.37
2022-11-23T21:37:00.535Z,25.48
2022-11-23T21:39:27.404Z,30.50
2022-11-23T21:41:54.510Z,26.02
2022-11-23T21:44:21.989Z,29.20
2022-11-23T21:46:49.027Z,28.75
2022-11-23T21:49:15.916Z,29.13
2022-11-23T21:51:42.893Z,30.05
2022-11-23T21:54:10.420Z,35.72
2022-11-23T21:56:37.216Z,30.40
2022-11-23T21:59:03.946Z,33.60
2022-11-23T22:01:32.603Z,32.72
2022-11-23T22:04:08.299Z,32.10
2022-11-23T22:06:36.269Z,34.67
2022-11-23T22:08:33.315Z,0
2022-11-23T22:09:04.167Z,34.13
2022-11-23T22:11:33.264Z,32.83
2022-11-23T22:14:02.609Z,34.28
2022-11-23T22:16:32.829Z,32.05
2022-11-23T22:19:00.930Z,34.20
2022-11-23T22:21:32.138Z,33.63
2022-11-23T22:24:00.129Z,32.72
2022-11-23T22:26:27.641Z,40.05
2022-11-23T22:28:55.625Z,34.70
2022-11-23T22:31:26.133Z,35.33
2022-11-23T22:36:43.260Z,35.65
2022-11-23T22:39:10.398Z,31.73
2022-11-23T22:41:38.438Z,34.72
2022-11-23T22:44:07.680Z,35.20
2022-11-23T22:46:35.188Z,37.03
2022-11-23T22:49:02.158Z,34.42
2022-11-23T22:51:29.333Z,36.58
2022-11-23T22:54:00.642Z,34.85
2022-11-23T22:56:28.991Z,35.08
2022-11-23T22:58:56.121Z,35.10
2022-11-23T23:01:25.618Z,33.67
2022-11-23T23:03:56.964Z,36.45
2022-11-23T23:06:26.135Z,34.17
2022-11-23T23:11:47.107Z,35.47
2022-11-23T23:17:00.709Z,39.77
2022-11-23T23:22:15.345Z,39.47
2022-11-23T23:27:28.970Z,38.83
2022-11-23T23:32:22.525Z,39.17
2022-11-23T23:34:49.410Z,38.13
2022-11-23T23:37:16.237Z,39.53
2022-11-23T23:39:43.085Z,42.13
2022-11-23T23:42:09.947Z,38.10
2022-11-23T23:44:36.808Z,39.13
2022-11-23T23:47:03.657Z,38.10
2022-11-23T23:49:30.458Z,37.72
2022-11-23T23:51:57.950Z,40.20
2022-11-23T23:54:25.169Z,43.38
2022-11-23T23:56:52.017Z,40.25
2022-11-23T23:59:18.849Z,40.53
